createdAt,value
2017-05-10T00:01:35.373Z,9.38
2017-05-10T00:04:04.425Z,10.80
2017-05-10T00:06:33.669Z,9.38
2017-05-10T00:09:02.949Z,12.02
2017-05-10T00:11:31.993Z,11.26
2017-05-10T00:14:01.356Z,12.84
2017-05-10T00:16:30.437Z,8.86
2017-05-10T00:19:00.478Z,11.34
2017-05-10T00:21:29.544Z,13.68
2017-05-10T00:23:59.325Z,10.02
2017-05-10T00:26:28.435Z,13.54
2017-05-10T00:28:57.511Z,10.82
2017-05-10T00:31:26.569Z,10.32
2017-05-10T00:33:55.594Z,8.24
2017-05-10T00:36:24.670Z,11.14
2017-05-10T00:38:53.720Z,10.88
2017-05-10T00:41:23.494Z,8.80
2017-05-10T00:43:52.532Z,11.50
2017-05-10T00:46:22.312Z,9.60
2017-05-10T00:48:51.373Z,10.32
2017-05-10T00:51:20.425Z,8.84
2017-05-10T00:53:50.482Z,9.14
2017-05-10T00:56:19.595Z,8.72
2017-05-10T00:58:48.914Z,10.82
2017-05-10T01:01:17.971Z,9.42
2017-05-10T01:03:47.021Z,9.04
2017-05-10T01:06:16.096Z,11.66
2017-05-10T01:08:45.139Z,8.68
2017-05-10T01:11:14.207Z,10.36
2017-05-10T01:13:43.249Z,14.74
2017-05-10T01:16:12.411Z,8.86
2017-05-10T01:18:42.233Z,9.84
2017-05-10T01:21:12.030Z,11.62
2017-05-10T01:23:41.725Z,12.40
2017-05-10T01:26:10.789Z,10.24
2017-05-10T01:28:39.833Z,9.94
2017-05-10T01:31:09.625Z,11.96
2017-05-10T01:33:38.672Z,13.88
2017-05-10T01:36:07.714Z,10.58
2017-05-10T01:38:37.095Z,13.84
2017-05-10T01:41:06.140Z,8.38
2017-05-10T01:43:35.925Z,9.70
2017-05-10T01:46:04.981Z,13.14
2017-05-10T01:48:34.037Z,12.24
2017-05-10T01:51:03.846Z,10.54
2017-05-10T01:53:33.695Z,10.54
2017-05-10T01:56:02.738Z,9.20
2017-05-10T01:58:31.797Z,10.42
2017-05-10T02:01:00.964Z,12.06
2017-05-10T02:03:30.016Z,14.80
2017-05-10T02:05:59.211Z,11.36
2017-05-10T02:08:28.243Z,8.72
2017-05-10T02:10:58.294Z,12.50
2017-05-10T02:13:27.333Z,13.66
2017-05-10T02:15:56.477Z,11.08
2017-05-10T02:18:25.532Z,11.64
2017-05-10T02:20:54.608Z,10.06
2017-05-10T02:23:23.662Z,14.14
2017-05-10T02:25:52.713Z,13.92
2017-05-10T02:28:21.805Z,11.72
2017-05-10T02:30:51.043Z,8.28
2017-05-10T02:33:20.085Z,12.12
2017-05-10T02:35:49.548Z,8.68
2017-05-10T02:38:18.617Z,11.38
2017-05-10T02:40:48.449Z,13.14
2017-05-10T02:43:17.489Z,11.18
2017-05-10T02:45:46.569Z,10.18
2017-05-10T02:48:15.618Z,16.30
2017-05-10T02:50:45.412Z,11.78
2017-05-10T02:53:14.745Z,12.36
2017-05-10T02:55:43.793Z,12.52
2017-05-10T02:58:12.893Z,10.82
2017-05-10T03:00:41.944Z,13.86
2017-05-10T03:03:10.991Z,10.76
2017-05-10T03:05:40.044Z,10.50
2017-05-10T03:08:09.162Z,12.82
2017-05-10T03:10:38.563Z,13.04
2017-05-10T03:13:07.926Z,12.34
2017-05-10T03:15:36.968Z,13.56
2017-05-10T03:18:06.046Z,10.66
2017-05-10T03:20:35.085Z,9.10
2017-05-10T03:23:04.882Z,13.78
2017-05-10T03:25:33.960Z,12.44
2017-05-10T03:28:03.043Z,11.50
2017-05-10T03:30:32.088Z,11.74
2017-05-10T03:33:01.893Z,13.24
2017-05-10T03:35:31.721Z,12.30
2017-05-10T03:38:01.552Z,11.62
2017-05-10T03:40:30.833Z,11.04
2017-05-10T03:42:59.894Z,10.34
2017-05-10T03:45:28.942Z,12.26
2017-05-10T03:47:58.013Z,14.56
2017-05-10T03:50:27.815Z,11.84
2017-05-10T03:52:57.632Z,12.00
2017-05-10T03:55:27.418Z,13.94
2017-05-10T03:57:56.494Z,11.52
2017-05-10T04:00:25.570Z,14.20
2017-05-10T04:02:54.640Z,12.02
2017-05-10T04:05:24.421Z,13.96
2017-05-10T04:07:53.491Z,9.54
2017-05-10T04:10:22.565Z,12.70
2017-05-10T04:12:51.612Z,12.16
2017-05-10T04:15:20.693Z,12.06
2017-05-10T04:17:49.805Z,12.24
2017-05-10T04:20:18.872Z,10.30
2017-05-10T04:22:48.197Z,15.60
2017-05-10T04:25:17.258Z,11.32
2017-05-10T04:27:46.285Z,14.88
2017-05-10T04:30:15.366Z,14.92
2017-05-10T04:32:44.720Z,9.38
2017-05-10T04:35:13.776Z,13.26
2017-05-10T04:37:42.827Z,12.66
2017-05-10T04:40:12.118Z,13.40
2017-05-10T04:42:41.194Z,13.54
2017-05-10T04:45:11.138Z,11.06
2017-05-10T04:47:40.202Z,11.50
2017-05-10T04:50:10.009Z,11.12
2017-05-10T04:52:39.828Z,12.28
2017-05-10T04:55:09.673Z,12.46
2017-05-10T04:57:38.716Z,12.94
2017-05-10T05:00:07.774Z,13.78
2017-05-10T05:02:36.905Z,14.10
2017-05-10T05:05:05.976Z,10.04
2017-05-10T05:07:35.014Z,11.32
2017-05-10T05:10:04.844Z,15.06
2017-05-10T05:12:33.955Z,12.40
2017-05-10T05:15:03.014Z,15.22
2017-05-10T05:17:32.841Z,11.16
2017-05-10T05:20:02.149Z,11.04
2017-05-10T05:22:31.210Z,11.88
2017-05-10T05:25:00.281Z,11.56
2017-05-10T05:27:29.340Z,9.94
2017-05-10T05:29:58.394Z,14.78
2017-05-10T05:32:27.537Z,10.40
2017-05-10T05:34:56.612Z,9.20
2017-05-10T05:37:26.464Z,10.52
2017-05-10T05:39:55.517Z,11.40
2017-05-10T05:42:25.304Z,11.22
2017-05-10T05:44:54.439Z,14.90
2017-05-10T05:47:23.524Z,10.00
2017-05-10T05:49:53.309Z,9.56
2017-05-10T05:52:22.383Z,16.72
2017-05-10T05:54:51.432Z,11.86
2017-05-10T05:57:20.877Z,16.22
2017-05-10T05:59:49.916Z,16.48
2017-05-10T06:02:18.973Z,9.66
2017-05-10T06:04:48.031Z,12.72
2017-05-10T06:07:17.109Z,11.38
2017-05-10T06:09:46.162Z,14.06
2017-05-10T06:12:15.238Z,10.40
2017-05-10T06:14:44.285Z,14.00
2017-05-10T06:17:13.334Z,10.96
2017-05-10T06:19:42.381Z,13.30
2017-05-10T06:22:11.433Z,12.18
2017-05-10T06:24:40.488Z,11.06
2017-05-10T06:27:09.536Z,13.20
2017-05-10T06:29:38.576Z,9.86
2017-05-10T06:32:07.647Z,13.08
2017-05-10T06:34:36.684Z,9.84
2017-05-10T06:37:05.928Z,14.90
2017-05-10T06:39:34.961Z,13.80
2017-05-10T06:42:04.020Z,13.50
2017-05-10T06:44:33.105Z,12.24
2017-05-10T06:47:02.140Z,8.42
2017-05-10T06:49:31.238Z,15.46
2017-05-10T06:52:00.325Z,12.28
2017-05-10T06:54:29.363Z,13.72
2017-05-10T06:56:58.401Z,10.74
2017-05-10T06:59:28.093Z,11.24
2017-05-10T07:01:57.281Z,9.38
2017-05-10T07:04:26.338Z,12.38
2017-05-10T07:06:55.404Z,13.04
2017-05-10T07:09:24.482Z,11.00
2017-05-10T07:11:53.553Z,10.20
2017-05-10T07:14:22.645Z,9.20
2017-05-10T07:16:51.921Z,10.18
2017-05-10T07:19:20.957Z,13.54
2017-05-10T07:21:50.149Z,10.88
2017-05-10T07:24:19.454Z,11.82
2017-05-10T07:26:48.681Z,12.80
2017-05-10T07:29:17.760Z,12.06
2017-05-10T07:31:46.824Z,11.14
2017-05-10T07:34:16.122Z,13.66
2017-05-10T07:36:45.164Z,13.74
2017-05-10T07:39:14.241Z,13.14
2017-05-10T07:41:43.564Z,10.38
2017-05-10T07:44:12.614Z,16.42
2017-05-10T07:46:41.652Z,13.40
2017-05-10T07:49:10.713Z,11.52
2017-05-10T07:51:39.818Z,15.10
2017-05-10T07:54:08.871Z,9.34
2017-05-10T07:56:37.927Z,16.36
2017-05-10T07:59:07.082Z,12.80
2017-05-10T08:01:36.224Z,13.30
2017-05-10T08:04:05.456Z,10.72
2017-05-10T08:06:34.716Z,19.28
2017-05-10T08:09:03.754Z,9.50
2017-05-10T08:11:32.812Z,13.14
2017-05-10T08:14:01.885Z,15.30
2017-05-10T08:16:30.933Z,12.16
2017-05-10T08:18:59.971Z,10.34
2017-05-10T08:21:29.071Z,15.66
2017-05-10T08:23:58.353Z,18.96
2017-05-10T08:26:27.404Z,15.48
2017-05-10T08:28:56.692Z,14.70
2017-05-10T08:31:25.743Z,13.24
2017-05-10T08:33:54.814Z,12.28
2017-05-10T08:36:23.858Z,12.14
2017-05-10T08:38:52.897Z,15.14
2017-05-10T08:41:21.943Z,17.74
2017-05-10T08:43:50.994Z,15.94
2017-05-10T08:46:20.053Z,17.26
2017-05-10T08:48:49.117Z,17.30
2017-05-10T08:51:18.186Z,13.58
2017-05-10T08:53:47.266Z,13.68
2017-05-10T08:56:16.313Z,18.08
2017-05-10T08:58:45.630Z,14.20
2017-05-10T09:01:14.713Z,15.34
2017-05-10T09:03:43.768Z,11.32
2017-05-10T09:06:12.840Z,18.30
2017-05-10T09:08:41.916Z,15.34
2017-05-10T09:11:11.166Z,15.92
2017-05-10T09:13:40.255Z,22.34
2017-05-10T09:16:09.305Z,16.46
2017-05-10T09:18:38.361Z,18.26
2017-05-10T09:21:07.434Z,15.00
2017-05-10T09:23:36.512Z,14.32
2017-05-10T09:26:05.573Z,16.64
2017-05-10T09:28:34.613Z,18.62
2017-05-10T09:31:03.668Z,12.28
2017-05-10T09:33:32.753Z,15.84
2017-05-10T09:36:01.821Z,13.90
2017-05-10T09:38:30.864Z,18.48
2017-05-10T09:40:59.920Z,13.44
2017-05-10T09:43:28.980Z,17.00
2017-05-10T09:45:58.072Z,14.24
2017-05-10T09:48:27.125Z,15.38
2017-05-10T09:50:56.173Z,15.84
2017-05-10T09:53:25.244Z,22.18
2017-05-10T09:55:54.517Z,17.04
2017-05-10T09:58:23.808Z,16.76
2017-05-10T10:00:52.869Z,15.46
2017-05-10T10:03:22.141Z,17.86
2017-05-10T10:05:51.200Z,17.46
2017-05-10T10:08:20.245Z,15.50
2017-05-10T10:10:49.793Z,21.46
2017-05-10T10:13:19.010Z,18.98
2017-05-10T10:15:48.101Z,26.84
2017-05-10T10:18:17.172Z,18.94
2017-05-10T10:20:46.224Z,17.04
2017-05-10T10:23:15.265Z,23.10
2017-05-10T10:25:44.334Z,17.96
2017-05-10T10:28:13.384Z,23.02
2017-05-10T10:30:42.421Z,17.80
2017-05-10T10:33:11.503Z,16.52
2017-05-10T10:35:40.556Z,14.70
2017-05-10T10:38:09.597Z,18.06
2017-05-10T10:40:38.654Z,19.16
2017-05-10T10:43:07.729Z,17.04
2017-05-10T10:45:36.773Z,20.28
2017-05-10T10:48:05.845Z,19.16
2017-05-10T10:50:34.932Z,13.84
2017-05-10T10:53:04.005Z,18.72
2017-05-10T10:55:33.057Z,21.48
2017-05-10T10:58:02.121Z,15.26
2017-05-10T11:00:31.221Z,16.60
2017-05-10T11:03:00.273Z,17.68
2017-05-10T11:05:29.330Z,14.40
2017-05-10T11:07:58.397Z,16.40
2017-05-10T11:10:27.446Z,18.60
2017-05-10T11:12:56.485Z,15.88
2017-05-10T11:15:25.524Z,19.72
2017-05-10T11:17:54.577Z,17.60
2017-05-10T11:20:23.629Z,19.58
2017-05-10T11:22:52.697Z,16.60
2017-05-10T11:25:21.732Z,16.26
2017-05-10T11:27:50.778Z,20.32
2017-05-10T11:30:19.882Z,20.12
2017-05-10T11:32:49.023Z,18.60
2017-05-10T11:35:18.113Z,17.74
2017-05-10T11:37:47.263Z,17.56
2017-05-10T11:40:16.564Z,21.94
2017-05-10T11:42:45.620Z,18.90
2017-05-10T11:45:14.679Z,20.26
2017-05-10T11:47:43.733Z,18.20
2017-05-10T11:50:12.780Z,19.90
2017-05-10T11:52:41.845Z,19.04
2017-05-10T11:55:10.933Z,17.22
2017-05-10T11:57:39.992Z,19.04
2017-05-10T12:00:09.045Z,20.34
2017-05-10T12:02:38.113Z,21.42
2017-05-10T12:05:07.159Z,19.90
2017-05-10T12:07:36.231Z,18.94
2017-05-10T12:10:05.342Z,18.16
2017-05-10T12:12:34.462Z,16.96
2017-05-10T12:15:03.585Z,16.64
2017-05-10T12:17:32.641Z,21.08
2017-05-10T12:20:01.725Z,20.68
2017-05-10T12:22:30.744Z,18.20
2017-05-10T12:24:59.788Z,20.04
2017-05-10T12:27:28.834Z,19.72
2017-05-10T12:29:58.133Z,18.20
2017-05-10T12:32:27.188Z,19.02
2017-05-10T12:34:56.262Z,20.02
2017-05-10T12:37:25.324Z,16.50
2017-05-10T12:39:54.373Z,17.24
2017-05-10T12:42:23.633Z,17.70
2017-05-10T12:44:52.683Z,21.90
2017-05-10T12:47:21.757Z,18.70
2017-05-10T12:49:50.859Z,12.58
2017-05-10T12:52:19.935Z,20.14
2017-05-10T12:54:48.992Z,15.40
2017-05-10T12:57:18.276Z,25.90
2017-05-10T12:59:47.325Z,16.20
2017-05-10T13:02:16.364Z,18.20
2017-05-10T13:04:45.412Z,16.42
2017-05-10T13:07:14.469Z,18.62
2017-05-10T13:09:43.544Z,15.86
2017-05-10T13:12:12.901Z,20.08
2017-05-10T13:14:42.849Z,18.56
2017-05-10T13:17:11.912Z,19.52
2017-05-10T13:19:40.984Z,16.96
2017-05-10T13:22:10.027Z,19.38
2017-05-10T13:24:39.066Z,16.98
2017-05-10T13:27:08.161Z,24.76
2017-05-10T13:29:37.233Z,20.36
2017-05-10T13:32:06.313Z,18.76
2017-05-10T13:34:35.348Z,16.90
2017-05-10T13:37:04.413Z,15.58
2017-05-10T13:39:33.486Z,19.98
2017-05-10T13:42:02.546Z,19.86
2017-05-10T13:44:31.611Z,18.52
2017-05-10T13:47:00.661Z,19.90
2017-05-10T13:49:29.739Z,18.68
2017-05-10T13:51:58.806Z,20.18
2017-05-10T13:54:27.868Z,24.36
2017-05-10T13:56:57.724Z,21.44
2017-05-10T13:59:27.018Z,20.78
2017-05-10T14:01:56.129Z,18.44
2017-05-10T14:04:25.178Z,18.86
2017-05-10T14:06:54.235Z,18.34
2017-05-10T14:09:23.288Z,17.84
2017-05-10T14:11:52.750Z,17.48
2017-05-10T14:14:21.790Z,19.18
2017-05-10T14:16:50.922Z,22.32
2017-05-10T14:19:20.055Z,21.38
2017-05-10T14:21:49.405Z,18.74
2017-05-10T14:24:18.477Z,18.26
2017-05-10T14:26:47.573Z,17.34
2017-05-10T14:29:16.659Z,20.08
2017-05-10T14:31:45.734Z,19.20
2017-05-10T14:34:14.831Z,18.52
2017-05-10T14:36:43.881Z,22.58
2017-05-10T14:39:12.932Z,17.44
2017-05-10T14:41:41.989Z,20.80
2017-05-10T14:44:11.033Z,20.38
2017-05-10T14:46:40.092Z,18.20
2017-05-10T14:49:09.168Z,19.68
2017-05-10T14:51:38.209Z,18.88
2017-05-10T14:54:07.274Z,17.02
2017-05-10T14:56:36.325Z,20.02
2017-05-10T14:59:05.402Z,24.84
2017-05-10T15:01:34.512Z,19.18
2017-05-10T15:04:03.556Z,22.26
2017-05-10T15:06:32.632Z,19.26
2017-05-10T15:09:01.750Z,25.62
2017-05-10T15:11:31.060Z,19.06
2017-05-10T15:14:00.140Z,21.10
2017-05-10T15:16:29.180Z,21.22
2017-05-10T15:18:58.304Z,21.14
2017-05-10T15:21:27.369Z,21.28
2017-05-10T15:23:56.452Z,20.72
2017-05-10T15:26:25.501Z,22.06
2017-05-10T15:28:54.565Z,20.88
2017-05-10T15:31:23.629Z,20.12
2017-05-10T15:33:52.834Z,19.68
2017-05-10T15:36:21.892Z,18.20
2017-05-10T15:38:50.937Z,25.70
2017-05-10T15:41:19.987Z,18.48
2017-05-10T15:43:49.042Z,20.60
2017-05-10T15:46:18.101Z,18.36
2017-05-10T15:48:47.203Z,21.24
2017-05-10T15:51:16.249Z,19.88
2017-05-10T15:53:45.314Z,16.48
2017-05-10T15:56:14.394Z,21.16
2017-05-10T15:58:43.449Z,20.58
2017-05-10T16:01:12.569Z,19.62
2017-05-10T16:03:41.635Z,17.76
2017-05-10T16:06:10.695Z,24.86
2017-05-10T16:08:39.733Z,21.28
2017-05-10T16:11:08.794Z,20.24
2017-05-10T16:13:38.833Z,19.88
2017-05-10T16:16:08.108Z,18.30
2017-05-10T16:18:37.173Z,17.86
2017-05-10T16:21:06.223Z,18.06
2017-05-10T16:23:35.265Z,22.34
2017-05-10T16:26:04.394Z,19.36
2017-05-10T16:28:33.519Z,21.94
2017-05-10T16:31:02.589Z,23.82
2017-05-10T16:33:32.100Z,17.92
2017-05-10T16:36:01.161Z,18.02
2017-05-10T16:38:30.225Z,21.50
2017-05-10T16:40:59.283Z,21.38
2017-05-10T16:43:29.241Z,20.50
2017-05-10T16:45:59.093Z,19.58
2017-05-10T16:48:28.157Z,22.02
2017-05-10T16:50:57.452Z,18.58
2017-05-10T16:53:26.558Z,18.92
2017-05-10T16:55:55.608Z,18.44
2017-05-10T16:58:24.648Z,18.68
2017-05-10T17:00:53.745Z,21.20
2017-05-10T17:03:22.819Z,20.00
2017-05-10T17:05:52.352Z,17.28
2017-05-10T17:08:21.410Z,21.18
2017-05-10T17:10:50.919Z,19.26
2017-05-10T17:13:19.996Z,20.30
2017-05-10T17:15:49.833Z,20.78
2017-05-10T17:18:18.873Z,19.74
2017-05-10T17:20:47.956Z,17.02
2017-05-10T17:23:17.036Z,23.66
2017-05-10T17:25:46.077Z,24.40
2017-05-10T17:28:15.895Z,20.06
2017-05-10T17:30:45.742Z,23.96
2017-05-10T17:33:14.940Z,20.60
2017-05-10T17:35:44.049Z,17.74
2017-05-10T17:38:13.154Z,19.90
2017-05-10T17:40:42.228Z,19.00
2017-05-10T17:43:11.283Z,21.74
2017-05-10T17:45:40.338Z,21.82
2017-05-10T17:48:09.425Z,19.28
2017-05-10T17:50:38.545Z,18.56
2017-05-10T17:53:07.625Z,18.96
2017-05-10T17:55:36.697Z,19.54
2017-05-10T17:58:05.772Z,18.26
2017-05-10T18:00:34.862Z,23.32
2017-05-10T18:03:03.934Z,18.94
2017-05-10T18:05:32.994Z,18.46
2017-05-10T18:08:02.059Z,20.38
2017-05-10T18:10:31.366Z,17.60
2017-05-10T18:13:00.432Z,21.72
2017-05-10T18:15:29.706Z,19.42
2017-05-10T18:17:58.755Z,22.98
2017-05-10T18:20:27.865Z,23.60
2017-05-10T18:22:56.952Z,19.60
2017-05-10T18:25:26.252Z,19.30
2017-05-10T18:27:55.327Z,20.64
2017-05-10T18:30:26.430Z,22.18
2017-05-10T18:32:58.296Z,23.28
2017-05-10T18:35:27.372Z,17.70
2017-05-10T18:37:56.453Z,16.62
2017-05-10T18:40:25.521Z,18.44
2017-05-10T18:42:54.840Z,18.66
2017-05-10T18:45:24.084Z,16.62
2017-05-10T18:47:53.929Z,20.28
2017-05-10T18:50:23.716Z,18.82
2017-05-10T18:52:52.795Z,17.80
2017-05-10T18:55:21.848Z,16.04
2017-05-10T18:57:51.598Z,15.36
2017-05-10T19:00:20.641Z,19.24
2017-05-10T19:02:49.800Z,19.10
2017-05-10T19:05:18.870Z,14.68
2017-05-10T19:07:47.919Z,18.12
2017-05-10T19:10:18.546Z,16.82
2017-05-10T19:12:49.345Z,18.20
2017-05-10T19:15:18.658Z,18.32
2017-05-10T19:17:47.746Z,16.96
2017-05-10T19:20:17.133Z,19.28
2017-05-10T19:22:46.185Z,17.80
2017-05-10T19:25:15.996Z,23.74
2017-05-10T19:27:46.173Z,19.06
2017-05-10T19:30:15.245Z,17.64
2017-05-10T19:32:44.289Z,17.94
2017-05-10T19:35:13.366Z,26.22
2017-05-10T19:37:42.439Z,19.30
2017-05-10T19:40:11.813Z,15.92
2017-05-10T19:42:41.678Z,19.06
2017-05-10T19:45:10.776Z,17.04
2017-05-10T19:47:39.849Z,21.22
2017-05-10T19:50:09.052Z,16.88
2017-05-10T19:52:38.121Z,18.42
2017-05-10T19:55:07.171Z,18.64
2017-05-10T19:57:36.251Z,17.14
2017-05-10T20:00:05.371Z,16.52
2017-05-10T20:02:35.212Z,18.64
2017-05-10T20:05:04.613Z,17.16
2017-05-10T20:07:34.562Z,19.06
2017-05-10T20:10:03.662Z,19.10
2017-05-10T20:12:33.009Z,18.28
2017-05-10T20:15:02.836Z,16.92
2017-05-10T20:17:31.914Z,19.38
2017-05-10T20:20:01.990Z,16.68
2017-05-10T20:22:31.110Z,14.88
2017-05-10T20:25:00.313Z,19.84
2017-05-10T20:27:29.682Z,15.22
2017-05-10T20:29:58.767Z,17.50
2017-05-10T20:32:27.896Z,16.58
2017-05-10T20:34:56.953Z,17.16
2017-05-10T20:37:26.041Z,16.80
2017-05-10T20:39:55.121Z,18.98
2017-05-10T20:42:24.220Z,15.08
2017-05-10T20:44:53.653Z,17.70
2017-05-10T20:47:22.695Z,20.44
2017-05-10T20:49:53.233Z,15.72
2017-05-10T20:52:23.038Z,16.90
2017-05-10T20:54:53.699Z,16.22
2017-05-10T20:57:22.798Z,15.82
2017-05-10T20:59:51.862Z,25.38
2017-05-10T21:02:21.654Z,16.36
2017-05-10T21:04:50.743Z,16.48
2017-05-10T21:07:20.747Z,17.08
2017-05-10T21:09:49.830Z,15.68
2017-05-10T21:12:18.888Z,17.12
2017-05-10T21:14:48.780Z,17.46
2017-05-10T21:17:17.860Z,20.38
2017-05-10T21:19:46.984Z,17.20
2017-05-10T21:22:16.800Z,18.50
2017-05-10T21:24:46.942Z,23.36
2017-05-10T21:27:16.008Z,19.58
2017-05-10T21:29:46.066Z,20.34
2017-05-10T21:32:16.060Z,19.46
2017-05-10T21:34:45.130Z,20.74
2017-05-10T21:37:15.132Z,20.30
2017-05-10T21:39:44.205Z,18.40
2017-05-10T21:42:13.300Z,19.62
2017-05-10T21:44:42.388Z,18.18
2017-05-10T21:47:11.434Z,18.18
2017-05-10T21:49:41.244Z,18.60
2017-05-10T21:52:11.061Z,18.60
2017-05-10T21:54:40.857Z,21.66
2017-05-10T21:57:09.913Z,19.50
2017-05-10T21:59:38.976Z,19.98
2017-05-10T22:02:08.801Z,23.38
2017-05-10T22:04:37.861Z,19.54
2017-05-10T22:07:07.209Z,17.96
2017-05-10T22:09:36.274Z,19.48
2017-05-10T22:12:06.222Z,17.96
2017-05-10T22:14:35.477Z,14.82
2017-05-10T22:17:04.557Z,19.32
2017-05-10T22:19:33.916Z,18.22
2017-05-10T22:22:02.975Z,18.96
2017-05-10T22:24:32.774Z,15.70
2017-05-10T22:27:02.610Z,16.74
2017-05-10T22:29:33.140Z,15.54
2017-05-10T22:32:02.932Z,18.54
2017-05-10T22:34:31.993Z,17.24
2017-05-10T22:37:01.256Z,14.96
2017-05-10T22:39:30.301Z,18.24
2017-05-10T22:41:59.333Z,16.78
2017-05-10T22:44:30.068Z,19.34
2017-05-10T22:46:59.910Z,18.16
2017-05-10T22:49:28.971Z,15.64
2017-05-10T22:51:58.756Z,17.98
2017-05-10T22:54:27.825Z,15.26
2017-05-10T22:56:56.861Z,16.54
2017-05-10T22:59:25.910Z,18.52
2017-05-10T23:01:54.986Z,23.44
2017-05-10T23:04:24.603Z,16.42
2017-05-10T23:06:54.552Z,16.52
2017-05-10T23:09:23.621Z,15.56
2017-05-10T23:11:52.666Z,17.88
2017-05-10T23:14:22.475Z,19.78
2017-05-10T23:16:52.088Z,19.20
2017-05-10T23:19:21.111Z,17.18
2017-05-10T23:21:51.061Z,17.14
2017-05-10T23:24:20.103Z,22.36
2017-05-10T23:26:50.269Z,19.46
2017-05-10T23:29:19.318Z,17.42
2017-05-10T23:31:49.498Z,25.00
2017-05-10T23:34:18.536Z,18.08
2017-05-10T23:36:47.587Z,19.00
2017-05-10T23:39:17.428Z,20.00
2017-05-10T23:41:47.347Z,19.66
2017-05-10T23:44:16.444Z,19.02
2017-05-10T23:46:45.483Z,17.92
2017-05-10T23:49:14.547Z,17.48
2017-05-10T23:51:43.610Z,19.56
2017-05-10T23:54:12.653Z,20.12
2017-05-10T23:56:41.727Z,18.34
2017-05-10T23:59:10.800Z,23.38
